createdAt,value
2018-12-20T00:00:01.870Z,4.70
2018-12-20T00:02:06.147Z,4.70
2018-12-20T00:04:10.702Z,4.60
2018-12-20T00:06:15.315Z,4.60
2018-12-20T00:08:19.776Z,4.60
2018-12-20T00:10:23.992Z,4.40
2018-12-20T00:12:28.408Z,4.40
2018-12-20T00:14:32.835Z,4.40
2018-12-20T00:16:37.283Z,4.50
2018-12-20T00:18:41.634Z,4.60
2018-12-20T00:20:46.224Z,4.70
2018-12-20T00:22:50.517Z,4.70
2018-12-20T00:24:55.201Z,4.60
2018-12-20T00:26:59.711Z,4.50
2018-12-20T00:29:04.062Z,4.40
2018-12-20T00:31:13.592Z,4.60
2018-12-20T00:33:14.541Z,4.70
2018-12-20T00:35:18.903Z,4.70
2018-12-20T00:37:23.160Z,4.80
2018-12-20T00:39:27.418Z,4.90
2018-12-20T00:41:31.869Z,5.00
2018-12-20T00:43:36.452Z,5.00
2018-12-20T00:45:41.055Z,5.10
2018-12-20T00:47:45.367Z,5.10
2018-12-20T00:49:49.698Z,5.10
2018-12-20T00:51:54.036Z,5.10
2018-12-20T00:53:59.647Z,5.20
2018-12-20T00:56:04.098Z,5.20
2018-12-20T00:58:08.269Z,5.20
2018-12-20T01:00:12.910Z,5.20
2018-12-20T01:02:17.375Z,5.20
2018-12-20T01:04:22.024Z,5.30
2018-12-20T01:06:26.675Z,5.30
2018-12-20T01:08:30.873Z,5.30
2018-12-20T01:10:35.503Z,5.30
2018-12-20T01:12:39.956Z,5.40
2018-12-20T01:14:45.494Z,5.40
2018-12-20T01:16:50.224Z,5.40
2018-12-20T01:18:54.526Z,5.40
2018-12-20T01:20:58.806Z,5.40
2018-12-20T01:23:03.121Z,5.40
2018-12-20T01:25:07.761Z,5.50
2018-12-20T01:27:11.986Z,5.60
2018-12-20T01:29:16.861Z,5.60
2018-12-20T01:31:21.245Z,5.60
2018-12-20T01:33:25.699Z,5.70
2018-12-20T01:35:30.250Z,5.70
2018-12-20T01:37:34.563Z,5.80
2018-12-20T01:39:38.776Z,5.90
2018-12-20T01:41:43.092Z,5.90
2018-12-20T01:43:47.672Z,6.00
2018-12-20T01:45:52.121Z,6.00
2018-12-20T01:47:56.644Z,6.00
2018-12-20T01:50:00.872Z,5.90
2018-12-20T01:52:05.205Z,5.90
2018-12-20T01:54:09.726Z,6.00
2018-12-20T01:56:14.206Z,5.90
2018-12-20T01:58:18.871Z,5.90
2018-12-20T02:00:23.837Z,5.90
2018-12-20T02:02:28.449Z,5.80
2018-12-20T02:04:32.711Z,5.80
2018-12-20T02:06:36.845Z,5.90
2018-12-20T02:08:41.158Z,5.80
2018-12-20T02:10:45.392Z,5.80
2018-12-20T02:12:49.712Z,5.90
2018-12-20T02:15:01.442Z,5.90
2018-12-20T02:17:00.239Z,6.00
2018-12-20T02:19:04.966Z,6.00
2018-12-20T02:21:09.633Z,6.00
2018-12-20T02:23:14.383Z,6.10
2018-12-20T02:25:19.183Z,6.10
2018-12-20T02:27:23.737Z,6.10
2018-12-20T02:29:28.069Z,6.20
2018-12-20T02:31:32.415Z,6.20
2018-12-20T02:33:36.940Z,6.10
2018-12-20T02:35:41.226Z,6.10
2018-12-20T02:37:45.639Z,6.20
2018-12-20T02:39:50.198Z,6.20
2018-12-20T02:41:54.855Z,6.20
2018-12-20T02:43:59.283Z,6.20
2018-12-20T02:46:03.810Z,6.20
2018-12-20T02:48:07.965Z,6.20
2018-12-20T02:50:12.304Z,6.20
2018-12-20T02:52:16.679Z,6.20
2018-12-20T02:54:21.033Z,6.10
2018-12-20T02:56:25.680Z,6.10
2018-12-20T02:58:30.214Z,6.10
2018-12-20T03:00:34.821Z,6.20
2018-12-20T03:02:39.333Z,6.20
2018-12-20T03:04:43.774Z,6.20
2018-12-20T03:06:48.179Z,6.20
2018-12-20T03:08:52.402Z,6.20
2018-12-20T03:10:56.921Z,6.20
2018-12-20T03:13:01.189Z,6.20
2018-12-20T03:15:05.912Z,6.20
2018-12-20T03:17:10.335Z,6.20
2018-12-20T03:19:14.981Z,6.20
2018-12-20T03:21:19.258Z,6.20
2018-12-20T03:23:23.563Z,6.20
2018-12-20T03:25:28.178Z,6.30
2018-12-20T03:27:32.652Z,6.20
2018-12-20T03:29:37.043Z,6.20
2018-12-20T03:31:41.626Z,6.20
2018-12-20T03:33:45.904Z,6.20
2018-12-20T03:35:50.570Z,6.20
2018-12-20T03:37:55.030Z,6.30
2018-12-20T03:39:59.449Z,6.30
2018-12-20T03:42:03.773Z,6.30
2018-12-20T03:44:08.206Z,6.30
2018-12-20T03:46:12.396Z,6.30
2018-12-20T03:48:16.617Z,6.30
2018-12-20T03:50:21.331Z,6.40
2018-12-20T03:52:25.656Z,6.40
2018-12-20T03:54:29.946Z,6.50
2018-12-20T03:56:34.299Z,6.50
2018-12-20T03:58:38.706Z,6.60
2018-12-20T04:00:43.128Z,6.60
2018-12-20T04:02:47.815Z,6.60
2018-12-20T04:04:52.425Z,6.60
2018-12-20T04:06:56.871Z,6.60
2018-12-20T04:09:01.366Z,6.60
2018-12-20T04:11:05.944Z,6.60
2018-12-20T04:13:10.299Z,6.60
2018-12-20T04:15:14.927Z,6.60
2018-12-20T04:17:19.789Z,6.60
2018-12-20T04:19:25.095Z,6.60
2018-12-20T04:21:29.810Z,6.60
2018-12-20T04:23:36.806Z,6.60
2018-12-20T04:25:48.533Z,6.70
2018-12-20T04:27:52.931Z,6.60
2018-12-20T04:29:57.586Z,6.60
2018-12-20T04:32:02.037Z,6.60
2018-12-20T04:34:06.396Z,6.60
2018-12-20T04:36:10.920Z,6.60
2018-12-20T04:38:15.416Z,6.50
2018-12-20T04:40:20.248Z,6.50
2018-12-20T04:42:24.412Z,6.50
2018-12-20T04:44:28.918Z,6.50
2018-12-20T04:46:33.570Z,6.50
2018-12-20T04:48:38.041Z,6.40
2018-12-20T04:50:42.842Z,6.50
2018-12-20T04:52:47.333Z,6.40
2018-12-20T04:54:51.656Z,6.40
2018-12-20T04:56:56.490Z,6.40
2018-12-20T04:59:00.978Z,6.30
2018-12-20T05:01:05.580Z,6.20
2018-12-20T05:03:10.542Z,6.20
2018-12-20T05:05:15.024Z,6.10
2018-12-20T05:07:19.730Z,6.00
2018-12-20T05:09:24.020Z,6.00
2018-12-20T05:11:28.902Z,5.90
2018-12-20T05:13:33.243Z,6.00
2018-12-20T05:15:37.778Z,5.90
2018-12-20T05:17:42.195Z,5.90
2018-12-20T05:19:46.918Z,5.80
2018-12-20T05:21:51.708Z,5.80
2018-12-20T05:23:56.194Z,5.80
2018-12-20T05:26:23.021Z,5.70
2018-12-20T05:28:27.632Z,5.70
2018-12-20T05:30:32.222Z,5.60
2018-12-20T05:32:36.966Z,5.60
2018-12-20T05:34:41.802Z,5.60
2018-12-20T05:36:46.438Z,5.60
2018-12-20T05:38:50.888Z,5.50
2018-12-20T05:40:55.171Z,5.50
2018-12-20T05:42:59.327Z,5.50
2018-12-20T05:45:04.372Z,5.50
2018-12-20T05:47:08.908Z,5.40
2018-12-20T05:49:13.654Z,5.40
2018-12-20T05:51:18.060Z,5.40
2018-12-20T05:53:22.575Z,5.40
2018-12-20T05:55:27.349Z,5.40
2018-12-20T05:57:31.741Z,5.40
2018-12-20T05:59:36.158Z,5.50
2018-12-20T06:01:40.330Z,5.50
2018-12-20T06:03:44.898Z,5.60
2018-12-20T06:05:49.508Z,5.60
2018-12-20T06:07:53.842Z,5.60
2018-12-20T06:09:58.170Z,5.60
2018-12-20T06:12:02.796Z,5.60
2018-12-20T06:14:07.039Z,5.70
2018-12-20T06:16:12.929Z,5.70
2018-12-20T06:18:17.650Z,5.70
2018-12-20T06:20:22.094Z,5.80
2018-12-20T06:22:26.453Z,5.90
2018-12-20T06:24:30.722Z,5.90
2018-12-20T06:26:35.139Z,5.90
2018-12-20T06:28:39.703Z,5.90
2018-12-20T06:30:44.026Z,5.90
2018-12-20T06:32:48.265Z,5.90
2018-12-20T06:34:52.491Z,5.90
2018-12-20T06:36:56.789Z,6.00
2018-12-20T06:39:00.912Z,6.00
2018-12-20T06:41:05.203Z,6.00
2018-12-20T06:43:09.462Z,6.10
2018-12-20T06:45:13.740Z,6.10
2018-12-20T06:47:18.082Z,6.10
2018-12-20T06:49:22.660Z,6.10
2018-12-20T06:51:27.012Z,6.10
2018-12-20T06:53:31.341Z,6.20
2018-12-20T06:55:35.731Z,6.20
2018-12-20T06:57:40.235Z,6.20
2018-12-20T06:59:44.874Z,6.20
2018-12-20T07:01:48.987Z,6.10
2018-12-20T07:03:53.279Z,6.10
2018-12-20T07:05:57.729Z,6.20
2018-12-20T07:08:01.837Z,6.10
2018-12-20T07:10:06.263Z,6.20
2018-12-20T07:12:10.657Z,6.20
2018-12-20T07:14:14.849Z,6.30
2018-12-20T07:16:19.177Z,6.30
2018-12-20T07:18:23.363Z,6.30
2018-12-20T07:20:27.726Z,6.30
2018-12-20T07:22:32.033Z,6.30
2018-12-20T07:24:36.446Z,6.30
2018-12-20T07:26:40.869Z,6.30
2018-12-20T07:28:48.837Z,6.40
2018-12-20T07:30:53.159Z,6.40
2018-12-20T07:32:57.354Z,6.40
2018-12-20T07:35:01.761Z,6.50
2018-12-20T07:37:06.089Z,6.50
2018-12-20T07:39:10.547Z,6.50
2018-12-20T07:41:14.911Z,6.50
2018-12-20T07:43:19.230Z,6.50
2018-12-20T07:45:23.414Z,6.60
2018-12-20T07:47:27.755Z,6.60
2018-12-20T07:49:32.133Z,6.60
2018-12-20T07:51:36.689Z,6.60
2018-12-20T07:56:19.629Z,6.70
2018-12-20T07:58:24.140Z,6.70
2018-12-20T08:00:30.398Z,6.70
2018-12-20T08:02:34.829Z,6.80
2018-12-20T08:04:38.904Z,6.80
2018-12-20T08:06:43.369Z,6.80
2018-12-20T08:08:47.673Z,6.80
2018-12-20T08:10:51.908Z,6.80
2018-12-20T08:12:56.479Z,6.80
2018-12-20T08:15:00.787Z,6.90
2018-12-20T08:17:05.195Z,6.90
2018-12-20T08:19:09.552Z,6.90
2018-12-20T08:21:14.047Z,6.80
2018-12-20T08:23:18.466Z,6.80
2018-12-20T08:25:22.637Z,6.80
2018-12-20T08:27:26.869Z,6.80
2018-12-20T08:29:31.520Z,6.80
2018-12-20T08:31:35.828Z,6.90
2018-12-20T08:33:40.175Z,6.90
2018-12-20T08:35:44.688Z,6.90
2018-12-20T08:37:48.991Z,7.00
2018-12-20T08:39:53.313Z,7.00
2018-12-20T08:41:57.493Z,7.10
2018-12-20T08:44:01.760Z,7.10
2018-12-20T08:46:06.023Z,7.10
2018-12-20T08:48:10.456Z,7.20
2018-12-20T08:50:14.656Z,7.20
2018-12-20T08:52:19.176Z,7.20
2018-12-20T08:54:23.597Z,7.30
2018-12-20T08:56:27.915Z,7.30
2018-12-20T08:58:32.350Z,7.30
2018-12-20T09:00:36.661Z,7.40
2018-12-20T09:02:41.059Z,7.50
2018-12-20T09:04:45.370Z,7.70
2018-12-20T09:06:49.703Z,7.80
2018-12-20T09:08:53.925Z,7.90
2018-12-20T09:10:58.192Z,7.90
2018-12-20T09:13:09.516Z,7.90
2018-12-20T09:15:10.329Z,8.00
2018-12-20T09:17:14.856Z,8.00
2018-12-20T09:19:19.035Z,8.10
2018-12-20T09:21:23.213Z,8.00
2018-12-20T09:23:28.836Z,8.00
2018-12-20T09:25:33.123Z,8.00
2018-12-20T09:27:38.794Z,8.00
2018-12-20T09:29:43.108Z,8.10
2018-12-20T09:31:47.610Z,8.00
2018-12-20T09:33:52.142Z,8.00
2018-12-20T09:35:56.341Z,8.00
2018-12-20T09:38:01.079Z,8.00
2018-12-20T09:40:05.883Z,7.90
2018-12-20T09:42:10.018Z,7.90
2018-12-20T09:44:14.649Z,7.90
2018-12-20T09:46:18.990Z,8.00
2018-12-20T09:48:23.464Z,7.90
2018-12-20T09:50:27.750Z,7.90
2018-12-20T09:52:31.970Z,8.00
2018-12-20T09:54:36.176Z,8.10
2018-12-20T09:56:40.384Z,8.10
2018-12-20T09:58:46.980Z,8.20
2018-12-20T10:00:51.215Z,8.30
2018-12-20T10:02:55.518Z,8.30
2018-12-20T10:04:59.872Z,8.30
2018-12-20T10:07:04.325Z,8.30
2018-12-20T10:09:08.916Z,8.20
2018-12-20T10:11:13.145Z,8.10
2018-12-20T10:13:17.394Z,8.00
2018-12-20T10:15:21.999Z,8.00
2018-12-20T10:17:26.565Z,8.10
2018-12-20T10:19:31.033Z,8.20
2018-12-20T10:21:35.492Z,8.20
2018-12-20T10:23:40.189Z,8.30
2018-12-20T10:25:44.694Z,8.40
2018-12-20T10:27:48.820Z,8.50
2018-12-20T10:29:53.231Z,8.70
2018-12-20T10:31:57.559Z,8.90
2018-12-20T10:34:01.874Z,8.80
2018-12-20T10:36:06.164Z,8.90
2018-12-20T10:38:10.481Z,9.00
2018-12-20T10:40:14.713Z,9.00
2018-12-20T10:42:19.080Z,8.90
2018-12-20T10:44:23.362Z,8.70
2018-12-20T10:46:27.641Z,8.70
2018-12-20T10:48:31.983Z,8.60
2018-12-20T10:50:40.228Z,8.50
2018-12-20T10:52:44.469Z,8.50
2018-12-20T10:54:48.911Z,8.50
2018-12-20T10:56:53.151Z,8.50
2018-12-20T10:58:57.514Z,8.60
2018-12-20T11:01:07.171Z,8.70
2018-12-20T11:03:16.585Z,8.80
2018-12-20T11:05:28.043Z,8.90
2018-12-20T11:07:37.682Z,8.90
2018-12-20T11:09:49.738Z,8.90
2018-12-20T11:11:59.179Z,9.10
2018-12-20T11:14:03.732Z,9.20
2018-12-20T11:16:08.011Z,9.20
2018-12-20T11:18:12.291Z,9.40
2018-12-20T11:20:16.615Z,9.50
2018-12-20T11:22:32.894Z,9.60
2018-12-20T11:24:37.304Z,9.50
2018-12-20T11:26:41.875Z,9.60
2018-12-20T11:28:48.171Z,9.60
2018-12-20T11:30:53.857Z,9.50
2018-12-20T11:32:59.637Z,9.40
2018-12-20T11:35:05.385Z,9.40
2018-12-20T11:37:12.933Z,9.30
2018-12-20T11:39:18.350Z,9.40
2018-12-20T11:41:22.630Z,9.80
2018-12-20T11:43:27.015Z,10.30
2018-12-20T11:45:31.288Z,10.70
2018-12-20T11:47:35.577Z,11.00
2018-12-20T11:49:42.020Z,10.80
2018-12-20T11:51:47.399Z,10.60
2018-12-20T11:53:52.999Z,10.40
2018-12-20T11:55:57.840Z,10.50
2018-12-20T11:58:02.378Z,10.20
2018-12-20T12:00:09.215Z,10.10
2018-12-20T12:02:13.772Z,9.90
2018-12-20T12:04:19.228Z,9.80
2018-12-20T12:06:25.026Z,9.60
2018-12-20T12:08:29.342Z,9.50
2018-12-20T12:10:33.772Z,9.40
2018-12-20T12:12:38.072Z,9.40
2018-12-20T12:14:42.342Z,9.50
2018-12-20T12:16:46.601Z,9.50
2018-12-20T12:18:51.087Z,9.60
2018-12-20T12:20:55.459Z,9.60
2018-12-20T12:22:59.815Z,9.60
2018-12-20T12:25:04.656Z,9.50
2018-12-20T12:27:09.099Z,9.50
2018-12-20T12:29:13.888Z,9.40
2018-12-20T12:31:18.244Z,9.30
2018-12-20T12:33:22.456Z,9.20
2018-12-20T12:35:26.715Z,9.10
2018-12-20T12:37:31.273Z,9.10
2018-12-20T12:39:35.603Z,9.10
2018-12-20T12:41:39.900Z,9.20
2018-12-20T12:43:44.121Z,9.40
2018-12-20T12:45:48.537Z,9.40
2018-12-20T12:48:03.811Z,9.40
2018-12-20T12:50:06.823Z,9.30
2018-12-20T12:52:12.404Z,9.20
2018-12-20T12:54:16.869Z,9.10
2018-12-20T12:56:21.575Z,9.00
2018-12-20T12:58:25.741Z,8.90
2018-12-20T13:00:30.110Z,8.80
2018-12-20T13:02:34.514Z,8.60
2018-12-20T13:04:38.829Z,8.50
2018-12-20T13:06:43.108Z,8.50
2018-12-20T13:08:47.267Z,8.50
2018-12-20T13:10:52.064Z,8.50
2018-12-20T13:12:56.314Z,8.50
2018-12-20T13:15:00.779Z,8.50
2018-12-20T13:17:05.329Z,8.50
2018-12-20T13:19:10.576Z,8.40
2018-12-20T13:21:15.131Z,8.40
2018-12-20T13:23:19.718Z,8.40
2018-12-20T13:25:23.974Z,8.30
2018-12-20T13:27:28.207Z,8.30
2018-12-20T13:29:32.626Z,8.20
2018-12-20T13:31:37.480Z,8.20
2018-12-20T13:33:42.031Z,8.20
2018-12-20T13:35:48.253Z,8.10
2018-12-20T13:37:52.594Z,8.20
2018-12-20T13:39:57.234Z,8.00
2018-12-20T13:42:03.725Z,8.00
2018-12-20T13:44:08.190Z,8.00
2018-12-20T13:46:12.701Z,8.00
2018-12-20T13:48:22.189Z,8.00
2018-12-20T13:50:24.061Z,8.00
2018-12-20T13:52:28.406Z,8.00
2018-12-20T13:54:32.939Z,8.00
2018-12-20T13:56:37.355Z,8.00
2018-12-20T13:58:41.600Z,7.90
2018-12-20T14:00:45.953Z,7.80
2018-12-20T14:02:50.295Z,7.80
2018-12-20T14:04:54.513Z,7.80
2018-12-20T14:06:58.923Z,7.70
2018-12-20T14:09:04.333Z,7.80
2018-12-20T14:11:08.579Z,7.80
2018-12-20T14:13:12.866Z,7.80
2018-12-20T14:15:17.291Z,7.80
2018-12-20T14:17:21.537Z,7.80
2018-12-20T14:19:25.807Z,7.70
2018-12-20T14:21:30.025Z,7.70
2018-12-20T14:23:34.668Z,7.70
2018-12-20T14:25:39.985Z,7.70
2018-12-20T14:27:44.329Z,7.60
2018-12-20T14:29:48.657Z,7.60
2018-12-20T14:31:53.214Z,7.70
2018-12-20T14:33:57.563Z,7.60
2018-12-20T14:36:02.761Z,7.60
2018-12-20T14:38:07.024Z,7.70
2018-12-20T14:40:19.148Z,7.70
2018-12-20T14:42:23.413Z,7.70
2018-12-20T14:44:32.172Z,7.80
2018-12-20T14:46:38.623Z,7.70
2018-12-20T14:48:42.905Z,7.70
2018-12-20T14:50:47.437Z,7.70
2018-12-20T14:52:51.663Z,7.70
2018-12-20T14:55:09.596Z,7.70
2018-12-20T14:57:13.941Z,7.60
2018-12-20T14:59:18.274Z,7.60
2018-12-20T15:01:22.520Z,7.60
2018-12-20T15:03:26.599Z,7.60
2018-12-20T15:05:30.942Z,7.60
2018-12-20T15:07:35.520Z,7.60
2018-12-20T15:09:39.844Z,7.60
2018-12-20T15:11:44.122Z,7.60
2018-12-20T15:13:48.384Z,7.60
2018-12-20T15:15:52.618Z,7.50
2018-12-20T15:17:57.001Z,7.60
2018-12-20T15:20:01.313Z,7.50
2018-12-20T15:22:05.902Z,7.50
2018-12-20T15:24:10.148Z,7.50
2018-12-20T15:26:14.231Z,7.60
2018-12-20T15:28:18.750Z,7.60
2018-12-20T15:30:23.306Z,7.60
2018-12-20T15:32:27.734Z,7.50
2018-12-20T15:34:32.463Z,7.50
2018-12-20T15:36:36.765Z,7.50
2018-12-20T15:38:41.387Z,7.60
2018-12-20T15:40:46.015Z,7.50
2018-12-20T15:42:50.639Z,7.50
2018-12-20T15:44:54.941Z,7.40
2018-12-20T15:46:59.170Z,7.40
2018-12-20T15:49:04.588Z,7.40
2018-12-20T15:51:08.820Z,7.40
2018-12-20T15:53:13.119Z,7.50
2018-12-20T15:55:17.398Z,7.50
2018-12-20T15:57:21.876Z,7.50
2018-12-20T15:59:26.434Z,7.50
2018-12-20T16:01:30.734Z,7.50
2018-12-20T16:03:35.053Z,7.50
2018-12-20T16:05:39.409Z,7.50
2018-12-20T16:07:44.042Z,7.60
2018-12-20T16:09:48.520Z,7.60
2018-12-20T16:11:52.919Z,7.60
2018-12-20T16:13:57.203Z,7.60
2018-12-20T16:16:01.693Z,7.60
2018-12-20T16:18:06.218Z,7.60
2018-12-20T16:20:10.758Z,7.60
2018-12-20T16:22:15.272Z,7.60
2018-12-20T16:24:19.693Z,7.60
2018-12-20T16:26:24.058Z,7.60
2018-12-20T16:28:28.302Z,7.60
2018-12-20T16:30:33.354Z,7.70
2018-12-20T16:32:37.960Z,7.70
2018-12-20T16:34:42.318Z,7.70
2018-12-20T16:36:46.356Z,7.70
2018-12-20T16:38:50.343Z,7.70
2018-12-20T16:40:54.614Z,7.80
2018-12-20T16:42:58.785Z,7.80
2018-12-20T16:45:03.066Z,7.70
2018-12-20T16:47:07.492Z,7.80
2018-12-20T16:49:13.685Z,7.70
2018-12-20T16:51:18.111Z,7.70
2018-12-20T16:53:22.509Z,7.70
2018-12-20T16:55:26.858Z,7.70
2018-12-20T16:57:31.283Z,7.80
2018-12-20T16:59:35.384Z,7.80
2018-12-20T17:01:39.604Z,7.80
2018-12-20T17:03:44.549Z,7.80
2018-12-20T17:05:49.588Z,7.80
2018-12-20T17:07:53.995Z,7.80
2018-12-20T17:09:58.304Z,7.80
2018-12-20T17:12:02.608Z,7.80
2018-12-20T17:14:06.934Z,7.80
2018-12-20T17:16:11.130Z,7.70
2018-12-20T17:18:15.452Z,7.80
2018-12-20T17:20:20.012Z,7.80
2018-12-20T17:22:24.384Z,7.80
2018-12-20T17:24:28.753Z,7.70
2018-12-20T17:26:33.204Z,7.70
2018-12-20T17:28:37.635Z,7.70
2018-12-20T17:30:42.183Z,7.70
2018-12-20T17:32:46.469Z,7.70
2018-12-20T17:35:05.721Z,7.70
2018-12-20T17:37:10.061Z,7.70
2018-12-20T17:39:14.628Z,7.70
2018-12-20T17:41:18.946Z,7.70
2018-12-20T17:43:23.417Z,7.70
2018-12-20T17:45:27.806Z,7.70
2018-12-20T17:47:32.189Z,7.70
2018-12-20T17:49:37.660Z,7.60
2018-12-20T17:51:41.870Z,7.60
2018-12-20T17:53:46.135Z,7.60
2018-12-20T17:55:50.374Z,7.50
2018-12-20T17:57:54.708Z,7.50
2018-12-20T17:59:59.293Z,7.50
2018-12-20T18:02:03.660Z,7.50
2018-12-20T18:04:08.073Z,7.50
2018-12-20T18:06:12.380Z,7.50
2018-12-20T18:08:16.562Z,7.50
2018-12-20T18:10:20.935Z,7.40
2018-12-20T18:12:26.321Z,7.40
2018-12-20T18:14:31.013Z,7.50
2018-12-20T18:16:35.520Z,7.50
2018-12-20T18:18:39.603Z,7.50
2018-12-20T18:20:43.823Z,7.50
2018-12-20T18:22:48.119Z,7.50
2018-12-20T18:24:52.455Z,7.50
2018-12-20T18:26:56.549Z,7.50
2018-12-20T18:29:00.886Z,7.40
2018-12-20T18:31:05.194Z,7.40
2018-12-20T18:33:09.274Z,7.40
2018-12-20T18:35:13.530Z,7.40
2018-12-20T18:37:17.939Z,7.40
2018-12-20T18:39:22.073Z,7.40
2018-12-20T18:41:26.350Z,7.50
2018-12-20T18:43:30.603Z,7.50
2018-12-20T18:45:34.887Z,7.50
2018-12-20T18:47:39.286Z,7.50
2018-12-20T18:49:47.513Z,7.50
2018-12-20T18:51:49.873Z,7.50
2018-12-20T18:53:54.056Z,7.50
2018-12-20T18:55:58.207Z,7.50
2018-12-20T18:58:02.526Z,7.50
2018-12-20T19:00:09.214Z,7.50
2018-12-20T19:02:13.589Z,7.50
2018-12-20T19:04:17.775Z,7.60
2018-12-20T19:06:23.227Z,7.50
2018-12-20T19:08:27.671Z,7.80
2018-12-20T19:10:31.914Z,7.50
2018-12-20T19:12:36.315Z,7.50
2018-12-20T19:14:40.784Z,7.60
2018-12-20T19:16:45.229Z,7.60
2018-12-20T19:18:49.453Z,7.60
2018-12-20T19:20:54.058Z,7.60
2018-12-20T19:22:58.280Z,7.60
2018-12-20T19:25:02.339Z,7.60
2018-12-20T19:27:06.907Z,7.60
2018-12-20T19:29:11.236Z,7.60
2018-12-20T19:31:15.454Z,7.50
2018-12-20T19:33:19.537Z,7.50
2018-12-20T19:35:23.646Z,7.50
2018-12-20T19:37:27.871Z,7.50
2018-12-20T19:39:32.203Z,7.50
2018-12-20T19:41:36.498Z,7.50
2018-12-20T19:43:40.746Z,7.50
2018-12-20T19:45:46.145Z,7.40
2018-12-20T19:47:50.618Z,7.50
2018-12-20T19:49:54.891Z,7.50
2018-12-20T19:51:59.203Z,7.50
2018-12-20T19:54:03.840Z,7.50
2018-12-20T19:56:08.020Z,7.50
2018-12-20T19:58:12.463Z,7.50
2018-12-20T20:00:18.054Z,7.50
2018-12-20T20:02:22.412Z,7.50
2018-12-20T20:04:26.842Z,7.50
2018-12-20T20:06:31.317Z,7.50
2018-12-20T20:08:35.672Z,7.50
2018-12-20T20:10:39.774Z,7.50
2018-12-20T20:12:44.063Z,7.50
2018-12-20T20:14:48.470Z,7.50
2018-12-20T20:16:52.756Z,7.50
2018-12-20T20:18:56.946Z,7.40
2018-12-20T20:21:01.410Z,7.40
2018-12-20T20:23:05.648Z,7.40
2018-12-20T20:25:10.083Z,7.40
2018-12-20T20:27:14.404Z,7.40
2018-12-20T20:29:18.708Z,7.40
2018-12-20T20:31:23.137Z,7.50
2018-12-20T20:33:27.343Z,7.40
2018-12-20T20:35:32.935Z,7.50
2018-12-20T20:37:37.495Z,7.50
2018-12-20T20:39:41.921Z,7.50
2018-12-20T20:41:46.229Z,7.50
2018-12-20T20:43:50.462Z,7.60
2018-12-20T20:45:54.871Z,7.60
2018-12-20T20:47:58.975Z,7.60
2018-12-20T20:50:03.541Z,7.60
2018-12-20T20:52:09.205Z,7.60
2018-12-20T20:54:13.454Z,7.60
2018-12-20T20:56:17.771Z,7.60
2018-12-20T20:58:21.940Z,7.60
2018-12-20T21:00:27.438Z,7.50
2018-12-20T21:02:31.626Z,7.50
2018-12-20T21:04:35.831Z,7.50
2018-12-20T21:06:46.989Z,7.50
2018-12-20T21:08:49.903Z,7.50
2018-12-20T21:10:54.154Z,7.50
2018-12-20T21:12:58.304Z,7.40
2018-12-20T21:15:02.638Z,7.40
2018-12-20T21:17:15.315Z,7.40
2018-12-20T21:19:20.078Z,7.40
2018-12-20T21:21:25.622Z,7.40
2018-12-20T21:23:29.847Z,7.40
2018-12-20T21:25:36.307Z,7.30
2018-12-20T21:27:40.406Z,7.30
2018-12-20T21:29:44.513Z,7.30
2018-12-20T21:31:49.140Z,7.30
2018-12-20T21:33:53.367Z,7.30
2018-12-20T21:35:57.543Z,7.30
2018-12-20T21:38:01.775Z,7.10
2018-12-20T21:40:06.752Z,7.20
2018-12-20T21:42:11.224Z,7.20
2018-12-20T21:44:15.530Z,7.20
2018-12-20T21:46:19.711Z,7.20
2018-12-20T21:48:24.061Z,7.20
2018-12-20T21:50:28.283Z,7.20
2018-12-20T21:52:32.472Z,7.30
2018-12-20T21:54:36.768Z,7.20
2018-12-20T21:56:41.111Z,7.20
2018-12-20T21:58:45.442Z,7.30
2018-12-20T22:00:49.780Z,7.30
2018-12-20T22:02:54.005Z,7.30
2018-12-20T22:04:58.388Z,7.30
2018-12-20T22:07:02.792Z,7.30
2018-12-20T22:09:07.813Z,7.30
2018-12-20T22:11:12.154Z,7.30
2018-12-20T22:13:16.446Z,7.30
2018-12-20T22:15:20.987Z,7.30
2018-12-20T22:17:25.144Z,7.30
2018-12-20T22:19:29.701Z,7.30
2018-12-20T22:21:33.909Z,7.40
2018-12-20T22:23:38.021Z,7.40
2018-12-20T22:25:42.646Z,7.40
2018-12-20T22:27:47.070Z,7.40
2018-12-20T22:29:51.205Z,7.40
2018-12-20T22:31:55.620Z,7.40
2018-12-20T22:33:59.869Z,7.50
2018-12-20T22:36:04.450Z,7.40
2018-12-20T22:38:08.600Z,7.40
2018-12-20T22:40:12.939Z,7.40
2018-12-20T22:42:17.386Z,7.40
2018-12-20T22:44:21.633Z,7.40
2018-12-20T22:46:26.015Z,7.40
2018-12-20T22:48:30.401Z,7.40
2018-12-20T22:50:34.840Z,7.40
2018-12-20T22:52:39.367Z,7.40
2018-12-20T22:54:43.666Z,7.40
2018-12-20T22:56:47.867Z,7.30
2018-12-20T22:58:52.065Z,7.30
2018-12-20T23:00:56.619Z,7.30
2018-12-20T23:03:01.227Z,7.30
2018-12-20T23:05:05.533Z,7.30
2018-12-20T23:07:09.858Z,7.40
2018-12-20T23:09:14.185Z,7.40
2018-12-20T23:11:18.603Z,7.40
2018-12-20T23:13:22.980Z,7.40
2018-12-20T23:15:27.540Z,7.40
2018-12-20T23:17:31.837Z,7.40
2018-12-20T23:19:36.468Z,7.40
2018-12-20T23:21:41.085Z,7.40
2018-12-20T23:23:47.446Z,7.40
2018-12-20T23:25:51.867Z,7.40
2018-12-20T23:27:56.323Z,7.50
2018-12-20T23:30:00.786Z,7.50
2018-12-20T23:32:05.423Z,7.50
2018-12-20T23:34:10.041Z,7.40
2018-12-20T23:36:15.606Z,7.50
2018-12-20T23:38:20.131Z,7.50
2018-12-20T23:40:24.438Z,7.50
2018-12-20T23:42:29.054Z,7.50
2018-12-20T23:44:33.376Z,7.50
2018-12-20T23:46:37.952Z,7.40
2018-12-20T23:48:42.489Z,7.40
2018-12-20T23:50:47.139Z,7.50
2018-12-20T23:52:51.457Z,7.50
2018-12-20T23:54:55.568Z,7.50
2018-12-20T23:56:59.831Z,7.50
2018-12-20T23:59:04.010Z,7.60
